createdAt,value
2022-08-04T00:04:32.507Z,1.08
2022-08-04T00:10:04.140Z,1.08
2022-08-04T00:15:35.764Z,1.09
2022-08-04T00:23:28.347Z,1.08
2022-08-04T00:29:00.210Z,1.09
2022-08-04T00:34:32.082Z,1.08
2022-08-04T00:46:00.410Z,1.08
2022-08-04T00:53:27.110Z,1.08
2022-08-04T00:58:58.787Z,1.08
2022-08-04T03:05:16.009Z,1.08
2022-08-04T03:10:47.817Z,1.08
2022-08-04T03:16:31.236Z,1.09
2022-08-04T03:22:04.050Z,1.08
2022-08-04T03:27:36.467Z,1.07
2022-08-04T03:33:11.057Z,1.08
2022-08-04T03:38:43.029Z,1.07
2022-08-04T03:49:44.609Z,1.08
2022-08-04T03:55:16.176Z,1.08
2022-08-04T04:00:54.031Z,1.08
2022-08-04T04:06:25.991Z,1.08
2022-08-04T04:11:58.205Z,1.08
2022-08-04T04:17:29.378Z,1.08
2022-08-04T04:23:00.924Z,1.08
2022-08-04T04:36:24.886Z,1.08
2022-08-04T04:41:56.450Z,1.08
2022-08-04T04:52:57.776Z,1.09
2022-08-04T04:58:29.400Z,1.09
2022-08-04T05:04:01.196Z,1.10
2022-08-04T05:09:32.950Z,1.10
2022-08-04T05:15:04.774Z,1.09
2022-08-04T05:20:36.703Z,1.09
2022-08-04T05:26:08.333Z,1.09
2022-08-04T05:37:09.151Z,1.08
2022-08-04T05:42:41.130Z,1.09
2022-08-04T05:48:12.965Z,1.09
2022-08-04T05:53:44.439Z,1.10
2022-08-04T05:59:16.538Z,1.09
2022-08-04T06:04:48.109Z,1.10
2022-08-04T06:10:23.054Z,1.11
2022-08-04T06:15:51.773Z,1.11
2022-08-04T06:21:23.682Z,1.12
2022-08-04T06:26:55.374Z,1.12
2022-08-04T06:32:33.563Z,1.13
2022-08-04T06:38:00.992Z,1.13
2022-08-04T06:43:30.809Z,1.14
2022-08-04T06:49:02.515Z,1.14
2022-08-04T06:54:34.319Z,1.14
2022-08-04T07:05:37.703Z,1.14
2022-08-04T07:11:09.433Z,1.14
2022-08-04T07:16:41.166Z,1.15
2022-08-04T07:22:24.439Z,1.15
2022-08-04T07:27:48.217Z,1.15
2022-08-04T07:33:17.176Z,1.15
2022-08-04T07:38:51.643Z,1.16
2022-08-04T07:44:20.727Z,1.16
2022-08-04T07:49:56.606Z,1.15
2022-08-04T07:55:24.378Z,1.15
2022-08-04T08:00:55.934Z,1.15
2022-08-04T08:06:32.624Z,1.16
2022-08-04T08:12:36.050Z,1.16
2022-08-04T08:17:31.287Z,1.15
2022-08-04T08:23:02.870Z,1.14
2022-08-04T08:28:34.410Z,1.15
2022-08-04T08:34:06.299Z,1.16
2022-08-04T08:39:38.179Z,1.15
2022-08-04T08:45:10.149Z,1.15
2022-08-04T08:50:41.805Z,1.15
2022-08-04T08:56:13.470Z,1.14
2022-08-04T09:01:45.450Z,1.14
2022-08-04T09:07:17.077Z,1.15
2022-08-04T09:12:48.991Z,1.14
2022-08-04T09:18:22.211Z,1.14
2022-08-04T09:23:53.994Z,1.13
2022-08-04T09:29:25.795Z,1.13
2022-08-04T09:35:08.432Z,1.14
2022-08-04T09:40:52.277Z,1.14
2022-08-04T09:46:01.221Z,1.13
2022-08-04T09:51:57.975Z,1.14
2022-08-04T10:02:34.509Z,1.12
2022-08-04T10:08:16.110Z,1.12
2022-08-04T10:13:37.905Z,1.12
2022-08-04T10:19:09.761Z,1.12
2022-08-04T10:24:41.525Z,1.12
2022-08-04T10:30:13.462Z,1.11
2022-08-04T10:35:45.159Z,1.12
2022-08-04T10:41:16.863Z,1.12
2022-08-04T10:46:48.636Z,1.12
2022-08-04T10:52:20.598Z,1.11
2022-08-04T10:57:52.264Z,1.11
2022-08-04T11:03:24.007Z,1.11
2022-08-04T11:08:55.837Z,1.11
2022-08-04T11:14:27.681Z,1.11
2022-08-04T11:20:18.209Z,1.12
2022-08-04T11:25:31.187Z,1.12
2022-08-04T11:31:03.071Z,1.12
2022-08-04T11:36:34.911Z,1.12
2022-08-04T11:42:06.779Z,1.12
2022-08-04T11:47:38.320Z,1.12
2022-08-04T11:53:10.110Z,1.11
2022-08-04T11:58:41.616Z,1.12
2022-08-04T12:04:13.498Z,1.12
2022-08-04T12:09:45.432Z,1.12
2022-08-04T12:15:16.935Z,1.12
2022-08-04T12:20:48.895Z,1.11
2022-08-04T12:26:20.726Z,1.12
2022-08-04T12:31:52.479Z,1.12
2022-08-04T12:37:24.288Z,1.12
2022-08-04T12:42:59.443Z,1.11
2022-08-04T12:48:27.386Z,1.12
2022-08-04T12:53:59.386Z,1.12
2022-08-04T12:59:31.150Z,1.12
2022-08-04T13:05:02.846Z,1.12
2022-08-04T13:10:34.541Z,1.12
2022-08-04T13:16:08.399Z,1.12
2022-08-04T13:21:50.226Z,1.11
2022-08-04T13:27:09.871Z,1.12
2022-08-04T13:32:41.673Z,1.12
2022-08-04T13:38:13.608Z,1.12
2022-08-04T13:43:48.575Z,1.12
2022-08-04T13:49:31.338Z,1.12
2022-08-04T13:54:48.984Z,1.12
2022-08-04T14:00:30.254Z,1.12
2022-08-04T14:05:59.723Z,1.11
2022-08-04T14:12:06.801Z,1.12
2022-08-04T14:16:56.432Z,1.11
2022-08-04T14:22:28.287Z,1.12
2022-08-04T14:28:00.485Z,1.12
2022-08-04T14:34:04.716Z,1.12
2022-08-04T14:39:03.994Z,1.12
2022-08-04T14:44:35.907Z,1.12
2022-08-04T14:50:07.536Z,1.12
2022-08-04T14:55:39.370Z,1.12
2022-08-04T15:01:12.365Z,1.12
2022-08-04T15:06:43.597Z,1.12
2022-08-04T15:12:15.403Z,1.11
2022-08-04T15:17:47.012Z,1.12
2022-08-04T15:23:18.825Z,1.11
2022-08-04T15:28:50.751Z,1.12
2022-08-04T15:34:22.496Z,1.12
2022-08-04T15:45:23.821Z,1.11
2022-08-04T15:50:55.498Z,1.12
2022-08-04T15:56:27.361Z,1.11
2022-08-04T16:02:11.906Z,1.10
2022-08-04T16:07:31.003Z,1.12
2022-08-04T16:13:03.007Z,1.11
2022-08-04T16:18:34.281Z,1.12
2022-08-04T16:24:06.605Z,1.12
2022-08-04T16:29:37.316Z,1.11
2022-08-04T16:35:08.863Z,1.11
2022-08-04T16:43:01.770Z,1.12
2022-08-04T16:48:33.520Z,1.12
2022-08-04T16:54:05.634Z,1.12
2022-08-04T16:59:37.207Z,1.11
2022-08-04T17:05:08.822Z,1.12
2022-08-04T17:10:40.368Z,1.12
2022-08-04T17:16:13.908Z,1.11
2022-08-04T17:21:44.746Z,1.11
2022-08-04T17:32:45.836Z,1.12
2022-08-04T17:38:17.815Z,1.11
2022-08-04T17:44:04.589Z,1.11
2022-08-04T17:49:20.922Z,1.12
2022-08-04T17:54:52.503Z,1.11
2022-08-04T18:00:24.418Z,1.11
2022-08-04T18:06:03.562Z,1.11
2022-08-04T18:11:29.559Z,1.11
2022-08-04T18:16:59.743Z,1.11
2022-08-04T18:22:31.341Z,1.10
2022-08-04T18:28:02.806Z,1.11
2022-08-04T18:33:40.706Z,1.11
2022-08-04T18:39:15.088Z,1.12
2022-08-04T18:44:49.340Z,1.10
2022-08-04T18:51:01.175Z,1.11
2022-08-04T19:03:35.339Z,1.10
2022-08-04T19:09:07.068Z,1.11
2022-08-04T19:14:38.360Z,1.11
2022-08-04T19:20:15.762Z,1.11
2022-08-04T19:26:02.831Z,1.10
2022-08-04T19:31:17.122Z,1.10
2022-08-04T19:36:46.238Z,1.10
2022-08-04T19:42:17.763Z,1.11
2022-08-04T19:48:16.829Z,1.09
2022-08-04T19:53:36.076Z,1.10
2022-08-04T19:58:52.798Z,1.10
2022-08-04T20:04:24.994Z,1.10
2022-08-04T20:09:56.612Z,1.11
2022-08-04T20:15:28.281Z,1.10
2022-08-04T20:21:00.360Z,1.10
2022-08-04T20:26:32.219Z,1.10
2022-08-04T20:32:08.854Z,1.10
2022-08-04T20:37:56.863Z,1.11
2022-08-04T20:43:07.913Z,1.09
2022-08-04T20:48:39.516Z,1.10
2022-08-04T20:54:16.840Z,1.10
2022-08-04T20:59:43.048Z,1.09
2022-08-04T21:05:14.861Z,1.09
2022-08-04T21:10:47.586Z,1.09
2022-08-04T21:21:53.343Z,1.09
2022-08-04T21:27:30.988Z,1.09
2022-08-04T21:33:02.752Z,1.10
2022-08-04T21:38:34.396Z,1.10
2022-08-04T21:44:06.661Z,1.09
2022-08-04T21:49:38.196Z,1.09
2022-08-04T22:00:39.217Z,1.09
2022-08-04T22:06:10.909Z,1.09
2022-08-04T22:11:48.264Z,1.09
2022-08-04T22:17:24.183Z,1.09
2022-08-04T22:22:46.232Z,1.10
2022-08-04T22:28:18.799Z,1.09
2022-08-04T22:33:54.379Z,1.08
2022-08-04T22:39:27.649Z,1.10
2022-08-04T22:44:56.048Z,1.09
2022-08-04T22:50:28.409Z,1.09
2022-08-04T22:56:09.184Z,1.09
2022-08-04T23:01:39.238Z,1.08
2022-08-04T23:07:05.133Z,1.09
2022-08-04T23:12:34.857Z,1.10
2022-08-04T23:18:06.758Z,1.10
2022-08-04T23:23:55.245Z,1.09
2022-08-04T23:29:10.231Z,1.09
2022-08-04T23:34:42.292Z,1.09
2022-08-04T23:40:30.227Z,1.09
2022-08-04T23:46:01.942Z,1.09
2022-08-04T23:51:17.851Z,1.09
2022-08-04T23:56:49.717Z,1.09
